Time;durP1;ratioP1;P1;durP2;ratioP2;P2;SDS_P1;SDS_P2;PMS_P1;PMS_P2;Temp;Humidity;BMP_temperature;BMP_pressure;BME280_temperature;BME280_humidity;BME280_pressure;Samples;Min_cycle;Max_cycle;Signal;HPM_P1;HPM_P2
2022/03/15 00:00:32;;;;;;;40.20;25.48;;;;;;;7.41;71.02;102444.00;6285704;22;20007;-87
2022/03/15 00:03:06;;;;;;;40.97;25.45;;;;;;;7.55;71.24;102437.88;6311040;22;20013;-88
2022/03/15 00:05:33;;;;;;;41.80;25.85;;;;;;;7.77;70.31;102441.72;6281255;22;20014;-89
2022/03/15 00:07:59;;;;;;;42.70;26.05;;;;;;;7.88;69.68;102441.03;6281453;22;20007;-87
2022/03/15 00:10:26;;;;;;;45.58;27.17;;;;;;;7.86;69.55;102447.34;6308218;22;20014;-86
2022/03/15 00:12:54;;;;;;;48.80;27.38;;;;;;;7.71;70.20;102443.91;6307713;22;20565;-88
2022/03/15 00:15:20;;;;;;;46.22;27.75;;;;;;;7.48;71.16;102440.06;6280418;22;20015;-88
2022/03/15 00:17:46;;;;;;;42.83;26.48;;;;;;;7.62;70.89;102447.94;6255234;22;20004;-87
2022/03/15 00:20:18;;;;;;;45.90;26.42;;;;;;;7.64;70.52;102445.22;6307739;22;20022;-86
2022/03/15 00:22:44;;;;;;;50.30;26.63;;;;;;;7.39;71.84;102453.78;6279369;22;20080;-87
2022/03/15 00:25:16;;;;;;;43.78;26.40;;;;;;;7.31;72.37;102442.88;6307946;22;20023;-86
2022/03/15 00:27:41;;;;;;;43.83;25.65;;;;;;;7.23;73.39;102443.34;6307835;22;20007;-85
2022/03/15 00:30:07;;;;;;;41.33;24.65;;;;;;;7.03;74.32;102433.16;6280650;22;20657;-88
2022/03/15 00:32:34;;;;;;;49.00;25.27;;;;;;;6.94;75.01;102432.88;6307176;22;20007;-86
2022/03/15 00:35:00;;;;;;;46.72;25.52;;;;;;;6.81;76.33;102435.41;6307897;22;20449;-86
2022/03/15 00:37:27;;;;;;;43.30;24.90;;;;;;;6.89;75.41;102429.69;6279984;22;20037;-85
2022/03/15 00:39:53;;;;;;;40.42;24.38;;;;;;;6.91;75.95;102430.41;6279868;22;20439;-86
2022/03/15 00:42:18;;;;;;;37.30;24.83;;;;;;;7.04;75.60;102418.19;6306804;22;20061;-87
2022/03/15 00:44:44;;;;;;;46.22;24.58;;;;;;;6.94;76.54;102419.69;6308117;22;20087;-86
2022/03/15 00:47:10;;;;;;;42.53;25.33;;;;;;;7.00;76.49;102414.91;6280184;22;20454;-86
2022/03/15 00:49:36;;;;;;;40.15;23.88;;;;;;;7.13;76.11;102415.84;6307282;22;20029;-86
2022/03/15 00:52:03;;;;;;;38.92;25.05;;;;;;;7.18;75.25;102419.06;6306929;22;20011;-87
2022/03/15 00:54:28;;;;;;;38.33;24.02;;;;;;;7.38;74.72;102415.19;6307176;22;20014;-87
2022/03/15 00:56:54;;;;;;;43.00;25.27;;;;;;;7.33;74.83;102419.03;6280231;22;20003;-86
2022/03/15 00:59:20;;;;;;;48.00;24.95;;;;;;;7.47;74.12;102424.31;6307551;22;20007;-89
2022/03/15 01:01:46;;;;;;;43.28;26.83;;;;;;;7.54;73.53;102415.94;6307204;22;20011;-86
2022/03/15 01:04:12;;;;;;;45.45;25.13;;;;;;;7.63;72.86;102420.63;6280980;22;19995;-86
2022/03/15 01:06:39;;;;;;;37.55;24.30;;;;;;;7.58;73.00;102412.16;6327291;22;20007;-88
2022/03/15 01:09:07;;;;;;;37.22;23.55;;;;;;;7.85;72.00;102416.63;6298454;22;20046;-87
2022/03/15 01:11:35;;;;;;;39.60;24.20;;;;;;;7.58;73.20;102412.16;6308272;22;20003;-85
2022/03/15 01:14:04;;;;;;;45.95;25.65;;;;;;;7.69;72.55;102414.94;6308046;22;20015;-86
2022/03/15 01:16:30;;;;;;;46.47;26.83;;;;;;;7.43;73.89;102418.38;6279519;22;20011;-87
2022/03/15 01:18:56;;;;;;;42.45;26.92;;;;;;;7.20;75.35;102408.41;6280589;22;20112;-87
2022/03/15 01:21:25;;;;;;;48.08;26.63;;;;;;;7.01;75.99;102413.09;6320842;22;20011;-86
2022/03/15 01:23:50;;;;;;;45.20;27.23;;;;;;;7.15;75.44;102407.84;6266194;22;20019;-85
2022/03/15 01:26:18;;;;;;;50.10;26.25;;;;;;;7.13;75.54;102405.28;6290780;22;20023;-82
2022/03/15 01:28:43;;;;;;;47.83;27.38;;;;;;;7.01;75.87;102406.06;6322923;22;19999;-84
2022/03/15 01:31:11;;;;;;;45.25;26.65;;;;;;;7.04;76.19;102405.88;6317464;22;20007;-84
2022/03/15 01:33:37;;;;;;;45.03;27.05;;;;;;;7.20;75.05;102403.97;6319331;22;20014;-82
2022/03/15 01:36:07;;;;;;;41.92;25.52;;;;;;;7.52;73.70;102407.28;6318516;22;20034;-83
2022/03/15 01:38:34;;;;;;;47.97;27.00;;;;;;;7.43;73.75;102412.25;6319537;22;20007;-84
2022/03/15 01:41:01;;;;;;;47.08;28.52;;;;;;;7.24;74.60;102412.56;6290850;22;20045;-84
2022/03/15 01:43:27;;;;;;;46.42;28.85;;;;;;;7.02;75.69;102407.75;6319042;22;20117;-85
2022/03/15 01:45:53;;;;;;;47.83;29.05;;;;;;;6.93;76.47;102402.16;6293541;22;20391;-84
2022/03/15 01:48:25;;;;;;;53.42;30.17;;;;;;;6.70;77.34;102409.69;6318720;22;20008;-84
2022/03/15 01:50:59;;;;;;;51.47;29.48;;;;;;;6.69;77.58;102404.50;6294140;22;20018;-84
2022/03/15 01:53:27;;;;;;;48.30;28.92;;;;;;;6.78;77.37;102409.22;6319308;22;20015;-82
2022/03/15 01:55:53;;;;;;;49.97;28.30;;;;;;;7.10;75.72;102409.91;6292199;22;20015;-83
2022/03/15 01:58:21;;;;;;;46.75;27.25;;;;;;;7.13;75.29;102407.06;6292632;22;20015;-83
2022/03/15 02:00:55;;;;;;;46.20;28.52;;;;;;;7.31;74.55;102397.19;6292062;22;20002;-83
2022/03/15 02:03:21;;;;;;;48.35;28.90;;;;;;;7.37;73.78;102396.81;6307030;22;20025;-82
2022/03/15 02:05:49;;;;;;;49.58;28.83;;;;;;;7.31;74.13;102387.50;6333970;22;20011;-83
2022/03/15 02:08:17;;;;;;;44.50;26.77;;;;;;;7.42;73.77;102378.94;6325637;22;20030;-82
2022/03/15 02:10:45;;;;;;;46.72;28.25;;;;;;;7.55;72.76;102375.41;6332002;22;20014;-79
2022/03/15 02:13:12;;;;;;;45.72;27.02;;;;;;;7.59;72.57;102374.25;6332705;22;20037;-81
2022/03/15 02:15:41;;;;;;;47.90;28.00;;;;;;;7.55;72.71;102370.13;6333433;22;20063;-84
2022/03/15 02:18:13;;;;;;;41.50;26.75;;;;;;;7.62;72.75;102363.50;6327253;22;20030;-82
2022/03/15 02:20:38;;;;;;;44.65;28.45;;;;;;;7.73;72.36;102361.03;6330345;22;20007;-81
2022/03/15 02:23:06;;;;;;;51.58;27.25;;;;;;;7.66;72.05;102357.09;6319045;22;20015;-82
2022/03/15 02:25:32;;;;;;;48.17;29.10;;;;;;;7.57;72.62;102360.31;6316326;22;20007;-84
2022/03/15 02:27:58;;;;;;;43.55;27.45;;;;;;;7.53;73.05;102364.09;6314207;22;20346;-85
2022/03/15 02:30:24;;;;;;;43.72;27.05;;;;;;;7.65;72.64;102365.97;6316605;22;20014;-80
2022/03/15 02:32:52;;;;;;;42.10;27.15;;;;;;;7.76;71.67;102363.47;6302910;22;20014;-85
2022/03/15 02:35:18;;;;;;;47.63;27.95;;;;;;;7.62;72.59;102366.13;6317943;22;20011;-85
2022/03/15 02:37:45;;;;;;;49.00;29.23;;;;;;;7.41;73.47;102350.84;6320559;22;20011;-84
2022/03/15 02:40:11;;;;;;;44.42;27.52;;;;;;;7.64;73.13;102356.34;6326854;22;20014;-81
2022/03/15 02:42:39;;;;;;;45.63;27.73;;;;;;;7.49;73.72;102359.13;6273879;22;20015;-82
2022/03/15 02:45:05;;;;;;;47.95;28.05;;;;;;;7.50;73.51;102355.53;6267892;22;20015;-82
2022/03/15 02:47:33;;;;;;;45.05;28.23;;;;;;;7.36;74.68;102353.75;6318653;22;20003;-83
2022/03/15 02:50:06;;;;;;;51.28;28.77;;;;;;;7.32;74.68;102352.28;6321713;22;20018;-83
2022/03/15 02:52:38;;;;;;;34.63;21.37;;;;;;;7.13;76.48;102357.84;6319259;22;20011;-83
2022/03/15 02:55:30;;;;;;;49.50;27.20;;;;;;;7.09;77.35;102350.22;6325887;22;20364;-83
2022/03/15 02:58:20;;;;;;;44.50;27.15;;;;;;;6.90;78.72;102349.66;6294030;22;20022;-84
2022/03/15 03:00:58;;;;;;;41.58;25.67;;;;;;;6.91;78.75;102348.72;6319114;22;20037;-84
2022/03/15 03:03:29;;;;;;;46.63;28.10;;;;;;;6.95;78.62;102356.34;6297353;22;20011;-82
2022/03/15 03:05:54;;;;;;;49.30;28.95;;;;;;;7.26;77.29;102355.28;6322947;22;20003;-84
2022/03/15 03:08:27;;;;;;;44.63;27.38;;;;;;;7.32;76.84;102347.00;6321697;22;20446;-83
2022/03/15 03:11:02;;;;;;;48.47;27.92;;;;;;;7.46;75.99;102346.97;6293747;22;20018;-85
2022/03/15 03:13:35;;;;;;;43.65;21.75;;;;;;;7.32;76.37;102348.78;6322251;22;20019;-84
2022/03/15 03:16:07;;;;;;;44.70;28.77;;;;;;;7.23;76.59;102342.28;6320564;22;20335;-84
2022/03/15 03:18:43;;;;;;;46.80;27.80;;;;;;;7.11;77.57;102343.91;6321434;22;20014;-84
2022/03/15 03:21:12;;;;;;;42.60;28.42;;;;;;;7.03;78.56;102334.75;6313712;22;20015;-84
2022/03/15 03:23:39;;;;;;;46.00;28.02;;;;;;;7.18;78.17;102332.03;6323607;22;20011;-85
2022/03/15 03:26:08;;;;;;;51.45;29.67;;;;;;;7.20;77.85;102335.41;6294243;22;20011;-84
2022/03/15 03:28:37;;;;;;;43.42;26.73;;;;;;;7.42;77.28;102336.72;6319901;22;19999;-83
2022/03/15 03:31:16;;;;;;;45.00;27.75;;;;;;;7.51;76.35;102334.34;6321711;22;20442;-84
2022/03/15 03:33:43;;;;;;;47.78;27.48;;;;;;;7.63;75.47;102338.81;6324328;22;20319;-85
2022/03/15 03:36:10;;;;;;;46.25;27.08;;;;;;;7.44;76.45;102329.53;6319777;22;20054;-83
2022/03/15 03:38:37;;;;;;;48.05;29.00;;;;;;;7.46;76.78;102333.75;6270647;22;20018;-85
2022/03/15 03:41:04;;;;;;;46.85;28.23;;;;;;;7.64;75.59;102335.25;6318955;22;20003;-85
2022/03/15 03:43:32;;;;;;;44.50;28.23;;;;;;;7.73;75.11;102332.00;6324603;22;20017;-83
2022/03/15 03:45:59;;;;;;;43.97;27.10;;;;;;;7.88;74.65;102330.16;6324543;22;19996;-83
2022/03/15 03:48:34;;;;;;;50.38;27.15;;;;;;;7.76;74.89;102337.06;6292857;22;20015;-83
2022/03/15 03:51:01;;;;;;;43.70;27.58;;;;;;;7.85;74.90;102334.78;6323884;22;20015;-82
2022/03/15 03:53:32;;;;;;;45.97;25.92;;;;;;;7.89;74.71;102337.13;6323796;22;20003;-79
2022/03/15 03:55:58;;;;;;;47.83;29.52;;;;;;;7.82;74.96;102329.72;6300768;22;20037;-83
2022/03/15 03:58:29;;;;;;;41.78;27.45;;;;;;;7.90;74.79;102343.25;6325298;22;19999;-81
2022/03/15 04:00:56;;;;;;;51.05;28.08;;;;;;;7.91;74.59;102347.59;6300121;22;20002;-84
2022/03/15 04:03:25;;;;;;;39.40;26.30;;;;;;;8.00;74.65;102346.97;6322222;22;20003;-81
2022/03/15 04:05:52;;;;;;;40.92;26.40;;;;;;;8.02;74.24;102345.09;6325866;22;20031;-80
2022/03/15 04:08:24;;;;;;;50.08;28.25;;;;;;;7.80;75.83;102348.28;6327316;22;20418;-81
2022/03/15 04:10:50;;;;;;;44.17;25.40;;;;;;;7.50;77.56;102351.09;6319494;22;20007;-83
2022/03/15 04:13:18;;;;;;;46.55;28.17;;;;;;;7.17;79.84;102343.53;6291344;22;20011;-85
2022/03/15 04:15:49;;;;;;;49.97;28.00;;;;;;;7.13;80.55;102335.88;6316314;22;20012;-86
2022/03/15 04:18:14;;;;;;;46.45;28.02;;;;;;;7.17;79.93;102350.59;6320444;22;20071;-84
2022/03/15 04:20:43;;;;;;;45.80;29.15;;;;;;;7.10;80.47;102346.63;6291837;22;20004;-86
2022/03/15 04:23:16;;;;;;;46.55;28.83;;;;;;;7.28;79.52;102353.41;6294014;22;20025;-84
2022/03/15 04:25:45;;;;;;;52.10;27.90;;;;;;;7.15;80.92;102349.84;6268543;22;20404;-84
2022/03/15 04:28:12;;;;;;;46.03;28.83;;;;;;;7.09;80.80;102344.97;6318653;22;20007;-85
2022/03/15 04:30:41;;;;;;;49.22;30.20;;;;;;;6.86;82.45;102348.16;6320793;22;20063;-82
2022/03/15 04:33:06;;;;;;;47.25;29.30;;;;;;;6.85;83.34;102343.81;6320495;22;20018;-84
2022/03/15 04:35:32;;;;;;;46.22;28.88;;;;;;;6.83;83.43;102348.34;6319157;22;20339;-84
2022/03/15 04:37:58;;;;;;;53.55;29.85;;;;;;;6.88;83.68;102347.13;6289343;22;20090;-85
2022/03/15 04:40:24;;;;;;;51.45;28.92;;;;;;;7.00;82.57;102346.34;6318112;22;20007;-85
2022/03/15 04:42:54;;;;;;;49.53;28.98;;;;;;;6.91;83.25;102346.06;6319239;22;20007;-84
2022/03/15 04:45:21;;;;;;;53.70;30.13;;;;;;;6.95;83.42;102347.59;6262125;22;20015;-85
2022/03/15 04:47:47;;;;;;;51.67;29.23;;;;;;;7.06;83.13;102342.50;6319037;22;20083;-84
2022/03/15 04:50:12;;;;;;;52.17;30.17;;;;;;;7.00;83.44;102338.44;6287520;22;20323;-83
2022/03/15 04:52:38;;;;;;;49.92;29.23;;;;;;;6.97;83.73;102346.53;6313462;22;20042;-83
2022/03/15 04:55:08;;;;;;;45.25;28.15;;;;;;;7.15;82.88;102336.66;6290111;22;20010;-84
2022/03/15 04:57:34;;;;;;;50.60;28.48;;;;;;;7.47;81.30;102337.25;6319008;22;20008;-83
2022/03/15 05:00:08;;;;;;;46.35;28.85;;;;;;;7.26;82.11;102334.19;6322674;22;20017;-83
2022/03/15 05:02:43;;;;;;;51.60;30.38;;;;;;;7.31;82.16;102339.19;6320403;22;20304;-85
2022/03/15 05:05:09;;;;;;;48.03;28.73;;;;;;;7.39;81.58;102340.38;6293374;22;20102;-85
2022/03/15 05:07:38;;;;;;;61.05;30.35;;;;;;;7.25;82.74;102343.06;6322801;22;20084;-85
2022/03/15 05:12:49;;;;;;;47.22;30.45;;;;;;;6.88;84.72;102333.94;6319604;22;20510;-85
2022/03/15 05:15:24;;;;;;;47.30;30.23;;;;;;;6.63;86.89;102341.63;6319701;22;20023;-86
2022/03/15 05:17:49;;;;;;;48.28;30.63;;;;;;;6.59;87.99;102333.09;6291093;22;20015;-85
2022/03/15 05:20:15;;;;;;;58.47;30.85;;;;;;;6.61;88.04;102330.34;6288962;22;20097;-84
2022/03/15 05:22:43;;;;;;;50.35;29.95;;;;;;;6.64;88.30;102328.38;6316414;22;20007;-84
2022/03/15 05:25:13;;;;;;;44.40;29.83;;;;;;;6.72;88.47;102331.41;6316782;22;20432;-85
2022/03/15 05:27:42;;;;;;;47.78;29.95;;;;;;;6.75;88.12;102320.69;6315750;22;20012;-87
2022/03/15 05:30:09;;;;;;;59.33;30.52;;;;;;;6.74;88.57;102326.88;6317832;22;20007;-84
2022/03/15 05:32:38;;;;;;;54.28;31.00;;;;;;;6.67;88.92;102328.19;6290042;22;20007;-82
2022/03/15 05:35:04;;;;;;;52.13;30.48;;;;;;;6.71;89.02;102327.06;6317091;22;20049;-85
2022/03/15 05:37:32;;;;;;;51.15;31.20;;;;;;;6.68;89.02;102329.88;6317495;22;20037;-84
2022/03/15 05:39:58;;;;;;;50.03;31.83;;;;;;;6.76;88.04;102335.53;6314234;22;20007;-83
2022/03/15 05:42:25;;;;;;;55.75;30.92;;;;;;;6.67;88.46;102336.09;6313549;22;20015;-80
2022/03/15 05:44:51;;;;;;;51.58;31.42;;;;;;;6.71;89.35;102339.38;6316597;22;20011;-81
2022/03/15 05:47:18;;;;;;;49.67;29.60;;;;;;;6.98;88.67;102344.75;6320915;22;20007;-85
2022/03/15 05:49:50;;;;;;;50.70;30.42;;;;;;;7.19;87.05;102343.44;6286957;22;20508;-83
2022/03/15 05:52:15;;;;;;;66.27;34.00;;;;;;;7.16;86.37;102351.53;6315546;22;20442;-88
2022/03/15 05:54:41;;;;;;;60.20;32.45;;;;;;;7.03;87.01;102361.13;6290042;22;20013;-86
2022/03/15 05:57:07;;;;;;;58.20;31.75;;;;;;;7.03;87.11;102355.84;6320306;22;20064;-82
2022/03/15 05:59:35;;;;;;;55.45;32.92;;;;;;;7.03;87.43;102364.63;6319907;22;20012;-80
2022/03/15 06:02:04;;;;;;;57.35;31.60;;;;;;;7.32;86.25;102365.47;6285938;22;20011;-79
2022/03/15 06:04:30;;;;;;;56.70;32.03;;;;;;;7.20;85.78;102363.56;6312319;22;20011;-84
2022/03/15 06:06:56;;;;;;;63.70;33.30;;;;;;;7.25;86.09;102365.00;6279404;22;20003;-79
2022/03/15 06:09:23;;;;;;;54.20;31.73;;;;;;;7.50;85.19;102361.66;6253813;22;20038;-80
2022/03/15 06:11:49;;;;;;;58.47;32.10;;;;;;;7.60;84.26;102362.75;6308791;22;20007;-79
2022/03/15 06:14:15;;;;;;;58.97;32.38;;;;;;;7.55;84.52;102370.13;6308848;22;20374;-81
2022/03/15 06:16:40;;;;;;;57.75;32.70;;;;;;;7.49;85.10;102370.50;6309582;22;20003;-80
2022/03/15 06:19:06;;;;;;;58.17;32.90;;;;;;;7.52;84.76;102372.97;6283424;22;20090;-81
2022/03/15 06:21:32;;;;;;;56.35;32.53;;;;;;;7.59;83.84;102376.88;6282492;22;20012;-81
2022/03/15 06:23:57;;;;;;;56.58;32.38;;;;;;;7.38;84.90;102373.00;6280848;22;20010;-80
2022/03/15 06:26:23;;;;;;;58.33;32.70;;;;;;;7.45;84.95;102374.31;6308549;22;20007;-80
2022/03/15 06:28:48;;;;;;;53.30;31.85;;;;;;;7.68;83.92;102375.47;6310398;22;20035;-80
2022/03/15 06:31:14;;;;;;;61.13;32.38;;;;;;;7.69;83.53;102378.00;6307867;22;20174;-79
2022/03/15 06:33:47;;;;;;;54.63;31.48;;;;;;;7.65;83.42;102381.81;6308544;22;20003;-83
2022/03/15 06:36:14;;;;;;;56.97;32.83;;;;;;;7.47;83.24;102384.75;6283289;22;20011;-80
2022/03/15 06:38:43;;;;;;;53.83;32.85;;;;;;;7.52;83.09;102380.03;6311116;22;20125;-80
2022/03/15 06:41:11;;;;;;;56.38;33.05;;;;;;;7.60;82.43;102389.16;6309759;22;20072;-80
2022/03/15 06:43:39;;;;;;;53.95;31.00;;;;;;;7.64;82.59;102395.09;6283535;22;20090;-80
2022/03/15 06:46:06;;;;;;;62.92;32.92;;;;;;;7.61;82.68;102400.56;6282796;22;20090;-80
2022/03/15 06:48:32;;;;;;;57.28;32.95;;;;;;;7.65;82.62;102405.56;6310255;22;20018;-81
2022/03/15 06:50:57;;;;;;;54.65;33.05;;;;;;;7.51;82.66;102405.56;6309711;22;20343;-79
2022/03/15 06:53:23;;;;;;;59.58;33.00;;;;;;;7.51;83.00;102410.84;6310047;22;20012;-82
2022/03/15 06:55:49;;;;;;;58.95;34.33;;;;;;;7.31;84.28;102416.50;6310275;22;20503;-82
2022/03/15 06:58:15;;;;;;;58.22;32.92;;;;;;;7.58;83.85;102417.44;6309865;22;20029;-82
2022/03/15 07:00:41;;;;;;;54.55;33.42;;;;;;;7.57;83.02;102420.16;6309829;22;20086;-80
2022/03/15 07:03:07;;;;;;;58.90;32.42;;;;;;;7.53;83.43;102418.66;6282136;22;20334;-80
2022/03/15 07:05:33;;;;;;;62.13;32.63;;;;;;;7.44;84.35;102427.16;6282495;22;20011;-78
2022/03/15 07:07:59;;;;;;;55.00;33.08;;;;;;;7.37;85.32;102426.69;6309329;22;20415;-80
2022/03/15 07:10:24;;;;;;;63.20;33.22;;;;;;;7.47;84.75;102430.44;6282540;22;20003;-81
2022/03/15 07:12:50;;;;;;;55.67;33.50;;;;;;;7.53;84.41;102418.66;6309416;22;20069;-82
2022/03/15 07:15:17;;;;;;;58.28;33.95;;;;;;;7.70;83.63;102421.94;6309483;22;20007;-79
2022/03/15 07:17:57;;;;;;;55.92;33.25;;;;;;;7.53;84.74;102419.50;6309510;22;20075;-80
2022/03/15 07:20:24;;;;;;;75.03;34.47;;;;;;;7.44;85.48;102417.44;6309124;22;20007;-79
2022/03/15 07:22:53;;;;;;;62.05;35.13;;;;;;;7.53;84.99;102424.78;6309643;22;20015;-81
2022/03/15 07:25:20;;;;;;;58.55;34.45;;;;;;;7.44;84.96;102422.72;6316964;22;20503;-78
2022/03/15 07:27:47;;;;;;;70.80;34.72;;;;;;;7.41;85.09;102430.81;6333725;22;20001;-80
2022/03/15 07:30:13;;;;;;;65.80;34.75;;;;;;;7.45;84.99;102428.84;6310198;22;20086;-79
2022/03/15 07:32:39;;;;;;;54.15;33.42;;;;;;;7.59;84.29;102424.38;6309653;22;20035;-81
2022/03/15 07:35:05;;;;;;;69.07;34.78;;;;;;;7.73;82.96;102431.44;6281984;22;20019;-78
2022/03/15 07:37:30;;;;;;;64.60;34.13;;;;;;;7.60;83.65;102425.25;6309563;22;20114;-80
2022/03/15 07:39:56;;;;;;;73.13;36.45;;;;;;;7.58;83.45;102428.00;6309259;22;20019;-79
2022/03/15 07:42:23;;;;;;;63.53;34.67;;;;;;;7.62;84.01;102424.19;6308769;22;20012;-77
2022/03/15 07:44:49;;;;;;;64.88;36.00;;;;;;;7.96;83.05;102433.47;6312027;22;20068;-80
2022/03/15 07:47:15;;;;;;;54.88;33.38;;;;;;;8.25;81.52;102434.22;6309197;22;20015;-81
2022/03/15 07:49:42;;;;;;;61.22;34.45;;;;;;;8.34;80.30;102436.28;6310857;22;20339;-79
2022/03/15 07:52:08;;;;;;;61.97;34.90;;;;;;;8.52;79.33;102435.06;6299709;22;20015;-81
2022/03/15 07:54:34;;;;;;;55.67;34.03;;;;;;;8.61;78.40;102434.47;6306985;22;20011;-80
2022/03/15 07:57:00;;;;;;;66.07;35.92;;;;;;;8.51;78.84;102430.75;6309759;22;20371;-80
2022/03/15 07:59:26;;;;;;;57.70;35.90;;;;;;;8.46;79.20;102429.34;6311679;22;20403;-80
2022/03/15 08:01:52;;;;;;;62.00;35.97;;;;;;;8.61;78.50;102421.25;6311899;22;20145;-84
2022/03/15 08:04:18;;;;;;;69.03;35.80;;;;;;;8.51;78.97;102417.53;6285371;22;20015;-83
2022/03/15 08:06:44;;;;;;;62.88;35.40;;;;;;;8.59;78.01;102431.06;6289076;22;20003;-80
2022/03/15 08:09:09;;;;;;;56.78;34.10;;;;;;;8.57;76.89;102419.75;6291406;22;20485;-80
2022/03/15 08:11:35;;;;;;;60.92;36.03;;;;;;;8.66;76.20;102424.41;6322356;22;20015;-80
2022/03/15 08:14:02;;;;;;;71.57;36.22;;;;;;;8.72;76.10;102421.34;6274343;22;20021;-81
2022/03/15 08:16:28;;;;;;;73.53;36.92;;;;;;;8.78;76.55;102423.56;6301805;22;20034;-80
2022/03/15 08:18:54;;;;;;;63.92;35.78;;;;;;;8.91;75.28;102435.97;6329181;22;20114;-81
2022/03/15 08:21:22;;;;;;;71.25;37.28;;;;;;;8.82;74.12;102434.78;6277891;22;20003;-80
2022/03/15 08:23:48;;;;;;;66.03;37.25;;;;;;;8.93;72.21;102436.72;6319165;22;20060;-80
2022/03/15 08:26:15;;;;;;;62.95;37.08;;;;;;;8.89;72.20;102435.22;6309556;22;20078;-82
2022/03/15 08:28:41;;;;;;;66.72;36.08;;;;;;;8.93;71.69;102436.72;6279463;22;20022;-80
2022/03/15 08:31:06;;;;;;;67.28;38.63;;;;;;;8.96;71.65;102437.34;6304424;22;20035;-88
2022/03/15 08:33:32;;;;;;;63.35;36.00;;;;;;;9.33;71.04;102435.66;6285556;22;19999;-83
2022/03/15 08:35:58;;;;;;;67.35;37.78;;;;;;;9.42;69.78;102437.66;6299710;22;20025;-86
2022/03/15 08:38:28;;;;;;;68.97;37.83;;;;;;;9.60;69.06;102436.38;6308374;22;20015;-81
2022/03/15 08:40:55;;;;;;;56.97;36.28;;;;;;;9.88;68.81;102429.91;6308232;22;20011;-84
2022/03/15 08:43:22;;;;;;;73.78;38.58;;;;;;;9.90;68.66;102435.97;6277597;22;20015;-84
2022/03/15 08:45:48;;;;;;;64.20;36.63;;;;;;;9.95;67.92;102438.25;6256370;22;20011;-87
2022/03/15 08:48:14;;;;;;;78.13;37.75;;;;;;;10.05;66.85;102444.59;6284092;22;20011;-85
2022/03/15 08:50:39;;;;;;;73.63;38.22;;;;;;;10.08;67.34;102447.84;6309921;22;20007;-85
2022/03/15 08:53:08;;;;;;;65.40;37.08;;;;;;;10.30;66.35;102450.69;6287384;22;20007;-86
2022/03/15 08:55:37;;;;;;;71.32;35.58;;;;;;;10.50;66.05;102451.84;6262537;22;20625;-86
2022/03/15 08:58:03;;;;;;;66.32;35.80;;;;;;;10.66;65.44;102444.44;6309007;22;20012;-87
2022/03/15 09:00:30;;;;;;;63.80;36.20;;;;;;;10.96;63.80;102456.31;6309414;22;20007;-82
2022/03/15 09:02:56;;;;;;;70.35;36.60;;;;;;;11.24;63.17;102453.22;6308752;22;20015;-81
2022/03/15 09:05:26;;;;;;;59.33;37.22;;;;;;;11.87;61.36;102448.16;6311003;22;20015;-92
2022/03/15 09:07:53;;;;;;;59.88;34.60;;;;;;;12.24;58.98;102455.81;6308057;22;20071;-91
2022/03/15 09:10:23;;;;;;;59.42;35.78;;;;;;;12.53;56.85;102462.22;6312519;22;20074;-86
2022/03/15 09:12:51;;;;;;;67.55;34.58;;;;;;;12.63;55.85;102456.97;6283785;22;20015;-82
2022/03/15 09:15:17;;;;;;;53.38;32.25;;;;;;;13.00;54.10;102449.38;6309839;22;20015;-86
2022/03/15 09:17:43;;;;;;;53.67;32.70;;;;;;;13.37;51.79;102454.13;6310984;22;20153;-88
2022/03/15 09:20:10;;;;;;;53.58;32.17;;;;;;;13.30;51.47;102457.44;6282138;22;20018;-84
2022/03/15 09:22:35;;;;;;;56.20;31.73;;;;;;;13.73;50.82;102457.19;6284459;22;20057;-82
2022/03/15 09:25:03;;;;;;;51.47;31.42;;;;;;;13.67;50.05;102461.25;6283265;22;20343;-85
2022/03/15 09:27:29;;;;;;;52.58;31.52;;;;;;;13.00;52.17;102455.56;6312209;22;20442;-87
2022/03/15 09:29:55;;;;;;;52.50;30.98;;;;;;;13.01;52.92;102451.09;6261950;22;20061;-83
2022/03/15 09:32:21;;;;;;;53.75;30.88;;;;;;;13.35;51.55;102450.75;6321400;22;20023;-79
2022/03/15 09:34:47;;;;;;;58.88;30.55;;;;;;;13.94;50.51;102450.81;6321322;22;19999;-80
2022/03/15 09:37:14;;;;;;;49.90;31.10;;;;;;;14.07;49.20;102449.72;6320617;22;20011;-80
2022/03/15 09:39:40;;;;;;;51.40;31.38;;;;;;;13.79;50.16;102433.50;6318030;22;20007;-79
2022/03/15 09:42:08;;;;;;;43.60;28.70;;;;;;;14.23;48.70;102432.19;6317965;22;20034;-82
2022/03/15 09:44:38;;;;;;;48.15;28.95;;;;;;;14.15;49.31;102432.03;6320385;22;20019;-81
2022/03/15 09:47:06;;;;;;;50.92;30.27;;;;;;;14.03;48.65;102419.81;6317814;22;20072;-84
2022/03/15 09:49:33;;;;;;;46.97;30.95;;;;;;;14.24;49.15;102417.03;6317757;22;19999;-82
2022/03/15 09:51:59;;;;;;;51.58;29.58;;;;;;;14.44;47.80;102432.09;6316005;22;20077;-82
2022/03/15 09:54:26;;;;;;;48.15;28.90;;;;;;;14.46;47.87;102419.44;6327347;22;20007;-84
2022/03/15 09:56:53;;;;;;;47.88;29.38;;;;;;;14.62;47.67;102426.88;6327279;22;20094;-79
2022/03/15 09:59:20;;;;;;;51.13;29.10;;;;;;;14.53;47.97;102428.56;6325793;22;20015;-82
2022/03/15 10:01:50;;;;;;;49.47;28.83;;;;;;;14.44;48.49;102418.75;6326504;22;20015;-83
2022/03/15 10:04:23;;;;;;;43.47;27.95;;;;;;;15.29;46.79;102422.22;6295005;22;20030;-83
2022/03/15 10:06:52;;;;;;;46.85;29.40;;;;;;;15.54;45.32;102428.78;6310792;22;20062;-81
2022/03/15 10:09:18;;;;;;;56.70;28.88;;;;;;;15.40;44.84;102430.06;6308696;22;20010;-79
2022/03/15 10:11:44;;;;;;;51.63;29.45;;;;;;;15.01;46.13;102420.50;6309420;22;20022;-81
2022/03/15 10:14:11;;;;;;;43.97;28.60;;;;;;;15.58;45.01;102419.44;6310716;22;20007;-84
2022/03/15 10:16:42;;;;;;;46.47;29.05;;;;;;;15.57;44.89;102416.94;6309628;22;20030;-84
2022/03/15 10:19:09;;;;;;;50.75;28.35;;;;;;;16.08;43.86;102408.31;6309592;22;20107;-80
2022/03/15 10:21:52;;;;;;;44.78;28.52;;;;;;;16.17;43.50;102404.75;6309399;22;20015;-81
2022/03/15 10:24:27;;;;;;;55.55;28.90;;;;;;;16.13;43.34;102400.69;6310695;22;20007;-80
2022/03/15 10:27:01;;;;;;;42.13;28.15;;;;;;;15.94;44.06;102407.03;6309902;22;20363;-80
2022/03/15 10:29:30;;;;;;;42.58;26.83;;;;;;;16.13;43.08;102392.66;6312474;22;20007;-81
2022/03/15 10:31:57;;;;;;;46.33;26.35;;;;;;;16.32;42.50;102384.47;6315002;22;20015;-81
2022/03/15 10:34:27;;;;;;;38.42;26.15;;;;;;;16.34;41.87;102386.00;6313698;22;20337;-84
2022/03/15 10:36:56;;;;;;;41.45;25.85;;;;;;;16.31;42.07;102388.13;6281281;22;20057;-81
2022/03/15 10:39:24;;;;;;;38.83;25.05;;;;;;;16.46;41.79;102387.44;6312513;22;20060;-82
2022/03/15 10:42:09;;;;;;;42.42;24.85;;;;;;;16.46;41.79;102391.94;6309699;22;20018;-83
2022/03/15 10:44:39;;;;;;;40.08;25.50;;;;;;;16.42;41.04;102395.94;6309424;22;20015;-82
2022/03/15 10:47:13;;;;;;;44.58;24.52;;;;;;;16.22;41.75;102383.72;6309948;22;20013;-83
2022/03/15 10:49:52;;;;;;;35.67;24.77;;;;;;;16.13;41.94;102379.28;6287171;22;20011;-83
2022/03/15 10:52:35;;;;;;;42.33;26.23;;;;;;;16.00;41.83;102387.69;6283173;22;20089;-82
2022/03/15 10:55:15;;;;;;;40.25;25.55;;;;;;;16.38;41.35;102381.16;6282157;22;20023;-83
2022/03/15 10:57:56;;;;;;;44.97;25.33;;;;;;;16.30;41.39;102365.91;6309787;22;20434;-83
2022/03/15 11:00:42;;;;;;;36.00;23.73;;;;;;;16.71;40.16;102372.41;6310318;22;20018;-81
2022/03/15 11:03:10;;;;;;;46.88;26.00;;;;;;;16.48;40.22;102368.53;6310034;22;20080;-82
2022/03/15 11:05:38;;;;;;;34.85;23.40;;;;;;;17.19;40.13;102352.28;6309828;22;20321;-82
2022/03/15 11:08:15;;;;;;;40.28;25.00;;;;;;;16.23;41.81;102347.94;6283145;22;20097;-83
2022/03/15 11:10:46;;;;;;;40.97;24.20;;;;;;;16.19;42.17;102347.41;6309308;22;20070;-82
2022/03/15 11:13:12;;;;;;;38.75;24.45;;;;;;;15.91;42.71;102351.97;6281674;22;20057;-84
2022/03/15 11:18:32;;;;;;;40.33;25.33;;;;;;;15.13;44.24;102336.53;6159924;23;20025;-85
2022/03/15 11:21:00;;;;;;;35.58;24.08;;;;;;;15.48;43.75;102338.50;6158519;23;20013;-83
2022/03/15 11:23:26;;;;;;;41.38;26.15;;;;;;;15.69;42.63;102336.41;6157107;23;20017;-83